Back to Top

Language: 

My Weather Underground Personal Weather Station Historical Data with Graphs...

Delerius Weather Station Historical Data
Daily Summary for August 4, 2017 Units:  English    Metric   Both
« Previous Day
Next Day »
Daily Weekly Monthly Yearly Custom
  High: Low: Average:
Temperature: 68.4 °F 54.1 °F 61.9 °F
Dew Point: 55.8 °F 47.7 °F 52.4 °F
Humidity: 89 % 51 % 72 %
Wind Speed: 19.0 mph 2.0 mph 10.2 mph
Wind Gust: 29.0 mph - -
Wind:- - West
Pressure: 29.90 in 29.62 in -
Precipitation: 0.00 in    
Historical Graphs
 
 
Tabular Data for August 4, 2017
Time Temperature Dew Point Pressure Wind Wind Speed Wind Gust Humidity Rainfall Rate (Hourly) solar Conditions
00:01 59.4 °F 54.5 °F 29.63 in WSW 6.0 mph 14.0 mph 84 % 0.00 in 0 W/m2
00:06 59.5 °F 54.7 °F 29.63 in SW 6.0 mph 14.0 mph 84 % 0.00 in 0 W/m2
00:11 59.5 °F 54.7 °F 29.63 in SW 5.0 mph 13.0 mph 84 % 0.00 in 0 W/m2
00:16 59.4 °F 54.5 °F 29.63 in SW 5.0 mph 13.0 mph 84 % 0.00 in 0 W/m2
00:18 59.4 °F 54.5 °F 29.62 in SW 6.0 mph 13.0 mph 84 % 0.00 in 0 W/m2
00:23 59.4 °F 54.5 °F 29.63 in SW 7.0 mph 15.0 mph 84 % 0.00 in 0 W/m2
00:28 59.4 °F 54.5 °F 29.62 in WSW 9.0 mph 19.0 mph 84 % 0.00 in 0 W/m2
00:33 59.5 °F 54.7 °F 29.63 in WSW 10.0 mph 20.0 mph 84 % 0.00 in 0 W/m2
00:38 59.7 °F 54.9 °F 29.63 in WSW 9.0 mph 20.0 mph 84 % 0.00 in 0 W/m2
00:43 59.9 °F 55.1 °F 29.63 in WSW 8.0 mph 15.0 mph 84 % 0.00 in 0 W/m2
00:48 60.1 °F 55.2 °F 29.63 in WSW 8.0 mph 15.0 mph 84 % 0.00 in 0 W/m2
00:53 60.1 °F 55.2 °F 29.62 in SW 8.0 mph 15.0 mph 84 % 0.00 in 0 W/m2
00:58 60.3 °F 55.1 °F 29.62 in SW 9.0 mph 16.0 mph 83 % 0.00 in 0 W/m2
01:00 60.3 °F 55.1 °F 29.62 in SW 9.0 mph 16.0 mph 83 % 0.00 in 0 W/m2
01:05 60.4 °F 55.3 °F 29.62 in SW 11.0 mph 20.0 mph 83 % 0.00 in 0 W/m2
01:10 60.4 °F 55.3 °F 29.62 in SW 12.0 mph 21.0 mph 83 % 0.00 in 0 W/m2
01:15 60.4 °F 55.3 °F 29.62 in SW 11.0 mph 21.0 mph 83 % 0.00 in 0 W/m2
01:20 60.4 °F 55.3 °F 29.62 in SW 9.0 mph 15.0 mph 83 % 0.00 in 0 W/m2
01:25 60.4 °F 55.3 °F 29.62 in SW 10.0 mph 20.0 mph 83 % 0.00 in 0 W/m2
01:30 60.4 °F 54.9 °F 29.62 in SW 11.0 mph 20.0 mph 82 % 0.00 in 0 W/m2
01:35 60.4 °F 55.3 °F 29.62 in WSW 9.0 mph 19.0 mph 83 % 0.00 in 0 W/m2
01:40 60.4 °F 55.3 °F 29.62 in WSW 8.0 mph 15.0 mph 83 % 0.00 in 0 W/m2
01:45 60.4 °F 55.3 °F 29.62 in WSW 9.0 mph 16.0 mph 83 % 0.00 in 0 W/m2
01:50 60.4 °F 55.3 °F 29.62 in WSW 9.0 mph 16.0 mph 83 % 0.00 in 0 W/m2
01:55 60.4 °F 55.3 °F 29.62 in WSW 8.0 mph 15.0 mph 83 % 0.00 in 0 W/m2
02:00 60.4 °F 55.3 °F 29.62 in WSW 7.0 mph 14.0 mph 83 % 0.00 in 0 W/m2
02:05 60.4 °F 55.3 °F 29.62 in WSW 7.0 mph 14.0 mph 83 % 0.00 in 0 W/m2
02:10 60.6 °F 55.4 °F 29.62 in WSW 9.0 mph 18.0 mph 83 % 0.00 in 0 W/m2
02:15 60.6 °F 55.8 °F 29.62 in WSW 9.0 mph 18.0 mph 84 % 0.00 in 0 W/m2
02:20 60.4 °F 55.6 °F 29.62 in WSW 8.0 mph 15.0 mph 84 % 0.00 in 0 W/m2
02:25 60.3 °F 55.7 °F 29.62 in West 8.0 mph 13.0 mph 85 % 0.00 in 0 W/m2
02:30 60.1 °F 55.6 °F 29.62 in WSW 9.0 mph 18.0 mph 85 % 0.00 in 0 W/m2
02:35 60.1 °F 55.6 °F 29.62 in WSW 10.0 mph 18.0 mph 85 % 0.00 in 0 W/m2
02:40 60.1 °F 55.6 °F 29.63 in WSW 9.0 mph 15.0 mph 85 % 0.00 in 0 W/m2
02:45 60.1 °F 55.6 °F 29.63 in WSW 9.0 mph 15.0 mph 85 % 0.00 in 0 W/m2
02:48 60.1 °F 55.6 °F 29.63 in WSW 9.0 mph 15.0 mph 85 % 0.00 in 0 W/m2
02:51 60.1 °F 55.6 °F 29.63 in WSW 8.0 mph 15.0 mph 85 % 0.00 in 0 W/m2
02:56 60.1 °F 55.6 °F 29.63 in WSW 8.0 mph 15.0 mph 85 % 0.00 in 0 W/m2
03:01 60.1 °F 55.6 °F 29.63 in WSW 8.0 mph 15.0 mph 85 % 0.00 in 0 W/m2
03:06 60.1 °F 55.6 °F 29.63 in WSW 7.0 mph 11.0 mph 85 % 0.00 in 0 W/m2
03:11 59.9 °F 55.4 °F 29.64 in WSW 7.0 mph 13.0 mph 85 % 0.00 in 0 W/m2
03:16 59.7 °F 55.5 °F 29.64 in WSW 7.0 mph 13.0 mph 86 % 0.00 in 0 W/m2
03:21 59.5 °F 55.3 °F 29.64 in West 7.0 mph 13.0 mph 86 % 0.00 in 0 W/m2
03:27 59.5 °F 55.7 °F 29.64 in WSW 6.0 mph 11.0 mph 87 % 0.00 in 0 W/m2
03:32 59.5 °F 55.7 °F 29.64 in WSW 7.0 mph 13.0 mph 87 % 0.00 in 0 W/m2
03:37 59.4 °F 55.2 °F 29.64 in West 8.0 mph 13.0 mph 86 % 0.00 in 0 W/m2
03:42 59.4 °F 55.2 °F 29.64 in West 7.0 mph 12.0 mph 86 % 0.00 in 0 W/m2
03:47 59.4 °F 55.2 °F 29.64 in WSW 7.0 mph 12.0 mph 86 % 0.00 in 0 W/m2
03:52 59.4 °F 55.2 °F 29.64 in WSW 7.0 mph 12.0 mph 86 % 0.00 in 0 W/m2
03:57 59.4 °F 55.2 °F 29.64 in WSW 7.0 mph 11.0 mph 86 % 0.00 in 0 W/m2
04:02 59.4 °F 54.8 °F 29.64 in WSW 6.0 mph 11.0 mph 85 % 0.00 in 0 W/m2
04:07 59.4 °F 54.8 °F 29.64 in WSW 8.0 mph 24.0 mph 85 % 0.00 in 0 W/m2
04:13 59.5 °F 55.0 °F 29.64 in WSW 9.0 mph 24.0 mph 85 % 0.00 in 0 W/m2
04:18 59.5 °F 55.0 °F 29.64 in WSW 8.0 mph 14.0 mph 85 % 0.00 in 0 W/m2
04:20 59.5 °F 54.7 °F 29.64 in WSW 7.0 mph 13.0 mph 84 % 0.00 in 0 W/m2
04:21 59.4 °F 54.5 °F 29.64 in WSW 6.0 mph 12.0 mph 84 % 0.00 in 0 W/m2
04:24 59.4 °F 54.5 °F 29.64 in WSW 5.0 mph 11.0 mph 84 % 0.00 in 0 W/m2
04:27 59.4 °F 54.8 °F 29.64 in WSW 5.0 mph 10.0 mph 85 % 0.00 in 0 W/m2
04:32 59.2 °F 54.3 °F 29.64 in WSW 5.0 mph 15.0 mph 84 % 0.00 in 0 W/m2
04:37 59.2 °F 54.0 °F 29.65 in WSW 8.0 mph 15.0 mph 83 % 0.00 in 0 W/m2
04:42 59.2 °F 54.0 °F 29.65 in WSW 8.0 mph 14.0 mph 83 % 0.00 in 0 W/m2
04:47 59.2 °F 54.0 °F 29.65 in WSW 7.0 mph 14.0 mph 83 % 0.00 in 0 W/m2
04:52 59.0 °F 53.8 °F 29.64 in WSW 7.0 mph 13.0 mph 83 % 0.00 in 0 W/m2
04:57 58.8 °F 53.7 °F 29.65 in WSW 8.0 mph 14.0 mph 83 % 0.00 in 0 W/m2
05:02 58.8 °F 53.7 °F 29.65 in WSW 8.0 mph 14.0 mph 83 % 0.00 in 0 W/m2
05:07 58.6 °F 53.5 °F 29.65 in WSW 9.0 mph 16.0 mph 83 % 0.00 in 0 W/m2
05:12 58.6 °F 53.5 °F 29.65 in WSW 9.0 mph 16.0 mph 83 % 0.00 in 0 W/m2
05:17 58.5 °F 53.3 °F 29.65 in West 10.0 mph 18.0 mph 83 % 0.00 in 0 W/m2
05:22 58.5 °F 53.3 °F 29.65 in WSW 10.0 mph 18.0 mph 83 % 0.00 in 0 W/m2
05:27 58.5 °F 53.3 °F 29.65 in WSW 10.0 mph 19.0 mph 83 % 0.00 in 0 W/m2
05:32 58.5 °F 53.3 °F 29.65 in WSW 11.0 mph 22.0 mph 83 % 0.00 in 0 W/m2
05:37 58.6 °F 53.5 °F 29.65 in WSW 12.0 mph 25.0 mph 83 % 0.00 in 5 W/m2
05:42 58.5 °F 53.3 °F 29.65 in WSW 12.0 mph 25.0 mph 83 % 0.00 in 7 W/m2
05:47 58.5 °F 53.3 °F 29.65 in WSW 13.0 mph 25.0 mph 83 % 0.00 in 7 W/m2
05:52 58.5 °F 53.3 °F 29.65 in WSW 13.0 mph 26.0 mph 83 % 0.00 in 12 W/m2
05:57 58.5 °F 53.3 °F 29.65 in WSW 13.0 mph 26.0 mph 83 % 0.00 in 12 W/m2
06:02 58.3 °F 53.5 °F 29.65 in WSW 14.0 mph 23.0 mph 84 % 0.00 in 14 W/m2
06:07 58.3 °F 53.5 °F 29.65 in WSW 12.0 mph 23.0 mph 84 % 0.00 in 19 W/m2
06:12 58.3 °F 53.5 °F 29.65 in West 10.0 mph 21.0 mph 84 % 0.00 in 23 W/m2
06:17 58.3 °F 53.5 °F 29.65 in West 9.0 mph 19.0 mph 84 % 0.00 in 35 W/m2
06:22 58.1 °F 53.3 °F 29.65 in West 10.0 mph 21.0 mph 84 % 0.00 in 39 W/m2
06:27 58.1 °F 53.3 °F 29.66 in WSW 12.0 mph 21.0 mph 84 % 0.00 in 69 W/m2
06:32 58.3 °F 53.5 °F 29.65 in WSW 13.0 mph 24.0 mph 84 % 0.00 in 40 W/m2
06:37 58.5 °F 53.6 °F 29.65 in WSW 13.0 mph 24.0 mph 84 % 0.00 in 121 W/m2
06:42 58.6 °F 53.8 °F 29.65 in WSW 13.0 mph 23.0 mph 84 % 0.00 in 137 W/m2
06:47 58.6 °F 53.8 °F 29.65 in WSW 13.0 mph 24.0 mph 84 % 0.00 in 130 W/m2
06:52 58.5 °F 53.6 °F 29.65 in WSW 12.0 mph 24.0 mph 84 % 0.00 in 33 W/m2
06:57 58.5 °F 53.6 °F 29.65 in WSW 12.0 mph 24.0 mph 84 % 0.00 in 97 W/m2
07:02 58.6 °F 53.8 °F 29.66 in WSW 13.0 mph 24.0 mph 84 % 0.00 in 69 W/m2
07:07 58.6 °F 53.5 °F 29.66 in WSW 13.0 mph 21.0 mph 83 % 0.00 in 113 W/m2
07:12 59.0 °F 53.8 °F 29.66 in West 14.0 mph 24.0 mph 83 % 0.00 in 214 W/m2
07:18 59.2 °F 54.0 °F 29.66 in West 13.0 mph 24.0 mph 83 % 0.00 in 72 W/m2
07:22 59.0 °F 54.2 °F 29.66 in WSW 11.0 mph 21.0 mph 84 % 0.00 in 54 W/m2
07:28 59.0 °F 54.2 °F 29.66 in WSW 11.0 mph 22.0 mph 84 % 0.00 in 77 W/m2
07:33 59.0 °F 54.5 °F 29.67 in WSW 12.0 mph 22.0 mph 85 % 0.00 in 69 W/m2
07:38 58.8 °F 54.3 °F 29.67 in West 13.0 mph 22.0 mph 85 % 0.00 in 120 W/m2
07:43 58.8 °F 54.6 °F 29.67 in West 13.0 mph 23.0 mph 86 % 0.00 in 111 W/m2
07:48 58.8 °F 55.0 °F 29.67 in WSW 12.0 mph 23.0 mph 87 % 0.00 in 58 W/m2
07:53 58.6 °F 55.1 °F 29.68 in WSW 9.0 mph 18.0 mph 88 % 0.00 in 81 W/m2
07:58 58.6 °F 55.1 °F 29.68 in West 8.0 mph 16.0 mph 88 % 0.00 in 81 W/m2
08:03 58.6 °F 55.4 °F 29.68 in West 8.0 mph 14.0 mph 89 % 0.00 in 83 W/m2
08:08 58.5 °F 55.2 °F 29.69 in West 8.0 mph 12.0 mph 89 % 0.00 in 105 W/m2
08:13 58.6 °F 55.4 °F 29.69 in West 8.0 mph 13.0 mph 89 % 0.00 in 125 W/m2
08:18 58.8 °F 55.6 °F 29.69 in West 9.0 mph 15.0 mph 89 % 0.00 in 146 W/m2
08:23 59.0 °F 55.4 °F 29.69 in West 8.0 mph 15.0 mph 88 % 0.00 in 141 W/m2
08:28 59.4 °F 55.5 °F 29.69 in West 9.0 mph 16.0 mph 87 % 0.00 in 244 W/m2
08:33 59.7 °F 55.5 °F 29.69 in West 11.0 mph 19.0 mph 86 % 0.00 in 200 W/m2
08:38 60.3 °F 55.4 °F 29.69 in West 14.0 mph 27.0 mph 84 % 0.00 in 598 W/m2
08:43 60.8 °F 55.3 °F 29.70 in West 16.0 mph 27.0 mph 82 % 0.00 in 281 W/m2
08:48 61.3 °F 55.5 °F 29.70 in West 13.0 mph 25.0 mph 81 % 0.00 in 341 W/m2
08:53 61.9 °F 55.3 °F 29.70 in WNW 11.0 mph 21.0 mph 79 % 0.00 in 643 W/m2
08:58 61.9 °F 54.9 °F 29.70 in West 11.0 mph 23.0 mph 78 % 0.00 in 172 W/m2
09:03 61.5 °F 54.6 °F 29.70 in West 12.0 mph 23.0 mph 78 % 0.00 in 276 W/m2
09:08 61.9 °F 54.9 °F 29.70 in West 11.0 mph 18.0 mph 78 % 0.00 in 285 W/m2
09:14 62.1 °F 54.4 °F 29.71 in WNW 12.0 mph 21.0 mph 76 % 0.00 in 274 W/m2
09:19 62.2 °F 54.6 °F 29.71 in WNW 13.0 mph 24.0 mph 76 % 0.00 in 432 W/m2
09:24 62.2 °F 54.9 °F 29.71 in WNW 12.0 mph 24.0 mph 77 % 0.00 in 209 W/m2
09:29 62.2 °F 54.6 °F 29.72 in WNW 13.0 mph 22.0 mph 76 % 0.00 in 221 W/m2
09:34 62.1 °F 54.8 °F 29.72 in West 13.0 mph 22.0 mph 77 % 0.00 in 244 W/m2
09:39 62.1 °F 54.8 °F 29.72 in West 12.0 mph 21.0 mph 77 % 0.00 in 251 W/m2
09:44 61.9 °F 54.9 °F 29.73 in West 11.0 mph 21.0 mph 78 % 0.00 in 236 W/m2
09:49 61.9 °F 54.9 °F 29.73 in West 11.0 mph 20.0 mph 78 % 0.00 in 188 W/m2
09:54 61.5 °F 54.6 °F 29.73 in West 12.0 mph 24.0 mph 78 % 0.00 in 227 W/m2
09:59 61.3 °F 55.1 °F 29.73 in West 11.0 mph 24.0 mph 80 % 0.00 in 216 W/m2
10:04 61.2 °F 54.9 °F 29.73 in West 10.0 mph 22.0 mph 80 % 0.00 in 163 W/m2
10:09 61.3 °F 55.1 °F 29.74 in West 10.0 mph 20.0 mph 80 % 0.00 in 121 W/m2
10:14 61.0 °F 55.1 °F 29.74 in West 10.0 mph 21.0 mph 81 % 0.00 in 156 W/m2
10:19 60.8 °F 55.3 °F 29.74 in West 10.0 mph 20.0 mph 82 % 0.00 in 740 W/m2
10:24 61.7 °F 55.1 °F 29.74 in WNW 10.0 mph 21.0 mph 79 % 0.00 in 244 W/m2
10:29 62.1 °F 53.7 °F 29.74 in WNW 13.0 mph 24.0 mph 74 % 0.00 in 258 W/m2
10:34 62.2 °F 53.5 °F 29.74 in WNW 15.0 mph 24.0 mph 73 % 0.00 in 341 W/m2
10:40 62.8 °F 54.0 °F 29.74 in West 14.0 mph 24.0 mph 73 % 0.00 in 503 W/m2
10:44 63.0 °F 54.2 °F 29.74 in West 13.0 mph 22.0 mph 73 % 0.00 in 510 W/m2
10:50 63.0 °F 53.8 °F 29.75 in West 13.0 mph 25.0 mph 72 % 0.00 in 357 W/m2
10:55 63.1 °F 54.0 °F 29.75 in West 13.0 mph 25.0 mph 72 % 0.00 in 912 W/m2
11:00 63.3 °F 53.8 °F 29.75 in West 13.0 mph 22.0 mph 71 % 0.00 in 527 W/m2
11:05 63.5 °F 54.3 °F 29.75 in West 13.0 mph 21.0 mph 72 % 0.00 in 756 W/m2
11:10 63.9 °F 54.3 °F 29.74 in West 13.0 mph 22.0 mph 71 % 0.00 in 791 W/m2
11:15 64.2 °F 54.6 °F 29.74 in West 13.0 mph 22.0 mph 71 % 0.00 in 798 W/m2
11:20 64.9 °F 54.1 °F 29.75 in West 13.0 mph 23.0 mph 68 % 0.00 in 911 W/m2
11:25 65.5 °F 54.6 °F 29.75 in West 14.0 mph 23.0 mph 68 % 0.00 in 991 W/m2
11:30 65.7 °F 54.0 °F 29.75 in West 14.0 mph 26.0 mph 66 % 0.00 in 353 W/m2
11:36 65.1 °F 53.9 °F 29.75 in West 15.0 mph 26.0 mph 67 % 0.00 in 842 W/m2
11:41 65.3 °F 54.1 °F 29.75 in West 15.0 mph 25.0 mph 67 % 0.00 in 889 W/m2
11:46 65.7 °F 55.2 °F 29.75 in West 14.0 mph 25.0 mph 69 % 0.00 in 847 W/m2
11:51 65.8 °F 54.6 °F 29.75 in West 13.0 mph 26.0 mph 67 % 0.00 in 861 W/m2
11:56 66.2 °F 53.7 °F 29.75 in West 14.0 mph 26.0 mph 64 % 0.00 in 838 W/m2
12:01 66.4 °F 54.3 °F 29.76 in West 15.0 mph 24.0 mph 65 % 0.00 in 849 W/m2
12:06 66.6 °F 53.6 °F 29.76 in West 14.0 mph 24.0 mph 63 % 0.00 in 963 W/m2
12:11 66.7 °F 52.9 °F 29.76 in West 15.0 mph 27.0 mph 61 % 0.00 in 1032 W/m2
12:16 66.4 °F 53.4 °F 29.76 in West 17.0 mph 29.0 mph 63 % 0.00 in 1032 W/m2
12:21 66.4 °F 53.8 °F 29.76 in West 15.0 mph 29.0 mph 64 % 0.00 in 900 W/m2
12:26 66.7 °F 52.0 °F 29.76 in West 14.0 mph 27.0 mph 59 % 0.00 in 867 W/m2
12:31 67.3 °F 52.5 °F 29.76 in WNW 14.0 mph 27.0 mph 59 % 0.00 in 867 W/m2
12:36 67.1 °F 53.2 °F 29.77 in West 15.0 mph 27.0 mph 61 % 0.00 in 234 W/m2
12:41 66.9 °F 53.0 °F 29.77 in West 17.0 mph 29.0 mph 61 % 0.00 in 977 W/m2
12:46 66.6 °F 52.7 °F 29.77 in West 18.0 mph 29.0 mph 61 % 0.00 in 881 W/m2
12:51 66.4 °F 52.5 °F 29.77 in WSW 19.0 mph 29.0 mph 61 % 0.00 in 905 W/m2
12:56 66.6 °F 53.1 °F 29.77 in WSW 17.0 mph 29.0 mph 62 % 0.00 in 933 W/m2
13:01 66.7 °F 52.4 °F 29.77 in West 15.0 mph 25.0 mph 60 % 0.00 in 919 W/m2
13:06 66.9 °F 52.1 °F 29.77 in WNW 15.0 mph 25.0 mph 59 % 0.00 in 285 W/m2
13:11 66.4 °F 52.5 °F 29.78 in WNW 15.0 mph 25.0 mph 61 % 0.00 in 209 W/m2
13:16 65.7 °F 52.7 °F 29.78 in West 14.0 mph 25.0 mph 63 % 0.00 in 891 W/m2
13:21 66.0 °F 53.1 °F 29.78 in West 14.0 mph 24.0 mph 63 % 0.00 in 1009 W/m2
13:26 66.2 °F 52.8 °F 29.78 in West 14.0 mph 27.0 mph 62 % 0.00 in 202 W/m2
13:31 66.7 °F 53.7 °F 29.78 in West 13.0 mph 27.0 mph 63 % 0.00 in 858 W/m2
13:36 66.9 °F 53.0 °F 29.78 in West 13.0 mph 25.0 mph 61 % 0.00 in 200 W/m2
13:37 66.9 °F 53.0 °F 29.78 in West 14.0 mph 25.0 mph 61 % 0.00 in 200 W/m2
13:42 66.7 °F 52.4 °F 29.79 in West 15.0 mph 25.0 mph 60 % 0.00 in 875 W/m2
13:47 66.9 °F 53.0 °F 29.79 in West 15.0 mph 26.0 mph 61 % 0.00 in 951 W/m2
13:52 66.7 °F 52.0 °F 29.79 in West 16.0 mph 26.0 mph 59 % 0.00 in 865 W/m2
13:57 67.3 °F 52.5 °F 29.79 in West 15.0 mph 27.0 mph 59 % 0.00 in 914 W/m2
14:02 67.5 °F 51.7 °F 29.79 in West 16.0 mph 27.0 mph 57 % 0.00 in 914 W/m2
14:07 67.8 °F 52.0 °F 29.79 in West 17.0 mph 27.0 mph 57 % 0.00 in 921 W/m2
14:12 68.2 °F 52.4 °F 29.79 in West 16.0 mph 27.0 mph 57 % 0.00 in 907 W/m2
14:13 68.2 °F 52.4 °F 29.79 in West 16.0 mph 27.0 mph 57 % 0.00 in 907 W/m2
14:18 68.4 °F 52.5 °F 29.79 in West 15.0 mph 24.0 mph 57 % 0.00 in 988 W/m2
14:23 68.4 °F 51.1 °F 29.79 in WSW 17.0 mph 28.0 mph 54 % 0.00 in 928 W/m2
14:28 68.2 °F 50.9 °F 29.80 in West 17.0 mph 28.0 mph 54 % 0.00 in 861 W/m2
14:33 67.6 °F 51.4 °F 29.80 in West 15.0 mph 26.0 mph 56 % 0.00 in 870 W/m2
14:38 67.6 °F 51.4 °F 29.80 in West 16.0 mph 26.0 mph 56 % 0.00 in 313 W/m2
14:43 67.3 °F 51.0 °F 29.80 in WSW 15.0 mph 25.0 mph 56 % 0.00 in 861 W/m2
14:48 67.5 °F 50.7 °F 29.80 in West 15.0 mph 28.0 mph 55 % 0.00 in 909 W/m2
14:53 67.3 °F 50.1 °F 29.81 in West 16.0 mph 28.0 mph 54 % 0.00 in 213 W/m2
14:58 66.7 °F 50.5 °F 29.81 in West 15.0 mph 25.0 mph 56 % 0.00 in 322 W/m2
15:03 66.9 °F 50.7 °F 29.81 in West 11.0 mph 25.0 mph 56 % 0.00 in 902 W/m2
15:08 67.3 °F 51.0 °F 29.81 in WNW 12.0 mph 27.0 mph 56 % 0.00 in 898 W/m2
15:13 67.6 °F 50.9 °F 29.81 in WNW 14.0 mph 27.0 mph 55 % 0.00 in 882 W/m2
15:18 67.6 °F 50.9 °F 29.81 in WNW 14.0 mph 22.0 mph 55 % 0.00 in 204 W/m2
15:23 67.5 °F 50.7 °F 29.81 in WNW 13.0 mph 21.0 mph 55 % 0.00 in 234 W/m2
15:28 67.3 °F 51.0 °F 29.81 in WNW 13.0 mph 22.0 mph 56 % 0.00 in 680 W/m2
15:33 67.5 °F 49.7 °F 29.81 in WNW 13.0 mph 22.0 mph 53 % 0.00 in 726 W/m2
15:38 67.5 °F 49.2 °F 29.81 in WNW 14.0 mph 27.0 mph 52 % 0.00 in 246 W/m2
15:43 66.7 °F 49.6 °F 29.82 in West 13.0 mph 27.0 mph 54 % 0.00 in 345 W/m2
15:48 66.9 °F 50.2 °F 29.82 in West 14.0 mph 23.0 mph 55 % 0.00 in 868 W/m2
15:53 66.7 °F 49.6 °F 29.82 in West 15.0 mph 27.0 mph 54 % 0.00 in 251 W/m2
15:58 66.6 °F 50.4 °F 29.82 in West 16.0 mph 27.0 mph 56 % 0.00 in 722 W/m2
16:03 66.9 °F 50.2 °F 29.82 in West 14.0 mph 25.0 mph 55 % 0.00 in 719 W/m2
16:08 66.9 °F 50.2 °F 29.82 in West 13.0 mph 22.0 mph 55 % 0.00 in 710 W/m2
16:13 67.5 °F 49.7 °F 29.82 in West 14.0 mph 25.0 mph 53 % 0.00 in 691 W/m2
16:18 67.8 °F 50.1 °F 29.82 in West 14.0 mph 25.0 mph 53 % 0.00 in 671 W/m2
16:23 67.8 °F 50.1 °F 29.83 in West 14.0 mph 26.0 mph 53 % 0.00 in 116 W/m2
16:28 67.5 °F 51.2 °F 29.83 in WNW 14.0 mph 26.0 mph 56 % 0.00 in 742 W/m2
16:33 67.3 °F 50.1 °F 29.83 in West 12.0 mph 23.0 mph 54 % 0.00 in 162 W/m2
16:38 66.9 °F 50.7 °F 29.83 in West 11.0 mph 23.0 mph 56 % 0.00 in 645 W/m2
16:43 67.3 °F 49.6 °F 29.83 in West 11.0 mph 22.0 mph 53 % 0.00 in 338 W/m2
16:48 66.9 °F 48.7 °F 29.83 in West 13.0 mph 22.0 mph 52 % 0.00 in 668 W/m2
16:53 66.9 °F 49.7 °F 29.83 in West 14.0 mph 22.0 mph 54 % 0.00 in 659 W/m2
16:58 66.7 °F 49.1 °F 29.83 in West 14.0 mph 22.0 mph 53 % 0.00 in 649 W/m2
17:03 66.7 °F 49.6 °F 29.83 in West 14.0 mph 22.0 mph 54 % 0.00 in 216 W/m2
17:08 66.2 °F 49.6 °F 29.83 in West 13.0 mph 21.0 mph 55 % 0.00 in 221 W/m2
17:13 66.0 °F 49.4 °F 29.84 in West 13.0 mph 24.0 mph 55 % 0.00 in 237 W/m2
17:18 66.2 °F 49.6 °F 29.83 in West 13.0 mph 24.0 mph 55 % 0.00 in 174 W/m2
17:23 66.6 °F 49.9 °F 29.83 in West 12.0 mph 22.0 mph 55 % 0.00 in 659 W/m2
17:28 66.7 °F 48.5 °F 29.84 in West 13.0 mph 23.0 mph 52 % 0.00 in 624 W/m2
17:33 66.9 °F 49.2 °F 29.84 in West 14.0 mph 23.0 mph 53 % 0.00 in 555 W/m2
17:38 67.3 °F 49.0 °F 29.84 in West 13.0 mph 20.0 mph 52 % 0.00 in 490 W/m2
17:43 67.3 °F 49.0 °F 29.84 in West 12.0 mph 20.0 mph 52 % 0.00 in 439 W/m2
17:48 66.9 °F 48.2 °F 29.84 in West 12.0 mph 22.0 mph 51 % 0.00 in 462 W/m2
17:49 66.7 °F 48.0 °F 29.84 in West 12.0 mph 22.0 mph 51 % 0.00 in 462 W/m2
17:54 66.9 °F 48.7 °F 29.84 in West 12.0 mph 22.0 mph 52 % 0.00 in 438 W/m2
17:59 66.9 °F 48.2 °F 29.84 in West 10.0 mph 19.0 mph 51 % 0.00 in 302 W/m2
18:04 66.7 °F 48.5 °F 29.84 in West 10.0 mph 19.0 mph 52 % 0.00 in 418 W/m2
18:09 67.1 °F 48.4 °F 29.84 in West 10.0 mph 19.0 mph 51 % 0.00 in 378 W/m2
18:14 66.4 °F 47.7 °F 29.84 in West 12.0 mph 21.0 mph 51 % 0.00 in 415 W/m2
18:19 66.2 °F 48.0 °F 29.84 in West 12.0 mph 21.0 mph 52 % 0.00 in 364 W/m2
18:24 66.4 °F 48.7 °F 29.84 in West 13.0 mph 20.0 mph 53 % 0.00 in 334 W/m2
18:29 66.2 °F 48.0 °F 29.85 in West 12.0 mph 20.0 mph 52 % 0.00 in 315 W/m2
18:34 66.0 °F 48.9 °F 29.85 in West 10.0 mph 20.0 mph 54 % 0.00 in 299 W/m2
18:39 66.0 °F 48.9 °F 29.85 in West 9.0 mph 16.0 mph 54 % 0.00 in 299 W/m2
18:44 65.8 °F 48.7 °F 29.85 in West 11.0 mph 21.0 mph 54 % 0.00 in 294 W/m2
18:49 65.7 °F 49.0 °F 29.85 in West 11.0 mph 21.0 mph 55 % 0.00 in 265 W/m2
18:54 65.5 °F 48.9 °F 29.85 in West 11.0 mph 19.0 mph 55 % 0.00 in 241 W/m2
18:59 65.5 °F 49.4 °F 29.85 in West 10.0 mph 16.0 mph 56 % 0.00 in 229 W/m2
19:04 65.5 °F 49.8 °F 29.85 in West 10.0 mph 16.0 mph 57 % 0.00 in 213 W/m2
19:09 65.5 °F 49.8 °F 29.85 in WNW 10.0 mph 19.0 mph 57 % 0.00 in 211 W/m2
19:14 65.1 °F 49.5 °F 29.85 in WNW 10.0 mph 19.0 mph 57 % 0.00 in 190 W/m2
19:17 65.1 °F 49.5 °F 29.85 in WNW 10.0 mph 19.0 mph 57 % 0.00 in 186 W/m2
19:22 64.9 °F 48.9 °F 29.86 in WNW 10.0 mph 18.0 mph 56 % 0.00 in 114 W/m2
19:27 64.2 °F 49.1 °F 29.86 in WNW 12.0 mph 20.0 mph 58 % 0.00 in 130 W/m2
19:32 63.9 °F 49.2 °F 29.86 in WNW 12.0 mph 20.0 mph 59 % 0.00 in 98 W/m2
19:37 63.7 °F 49.5 °F 29.86 in WNW 10.0 mph 18.0 mph 60 % 0.00 in 135 W/m2
19:42 63.7 °F 49.5 °F 29.86 in WNW 9.0 mph 16.0 mph 60 % 0.00 in 120 W/m2
19:47 63.5 °F 49.4 °F 29.86 in West 9.0 mph 16.0 mph 60 % 0.00 in 111 W/m2
19:52 63.3 °F 49.6 °F 29.86 in West 9.0 mph 16.0 mph 61 % 0.00 in 88 W/m2
19:57 63.0 °F 49.3 °F 29.87 in West 9.0 mph 16.0 mph 61 % 0.00 in 72 W/m2
20:02 62.6 °F 49.0 °F 29.87 in WNW 11.0 mph 19.0 mph 61 % 0.00 in 32 W/m2
20:07 62.2 °F 49.1 °F 29.87 in WNW 10.0 mph 19.0 mph 62 % 0.00 in 26 W/m2
20:12 62.1 °F 49.3 °F 29.87 in WNW 8.0 mph 13.0 mph 63 % 0.00 in 28 W/m2
20:17 61.5 °F 49.2 °F 29.87 in West 8.0 mph 14.0 mph 64 % 0.00 in 18 W/m2
20:22 61.3 °F 49.5 °F 29.88 in West 8.0 mph 14.0 mph 65 % 0.00 in 14 W/m2
20:28 61.0 °F 49.1 °F 29.88 in WNW 7.0 mph 13.0 mph 65 % 0.00 in 12 W/m2
20:33 60.8 °F 49.4 °F 29.88 in West 7.0 mph 12.0 mph 66 % 0.00 in 11 W/m2
20:38 60.4 °F 49.0 °F 29.88 in WNW 6.0 mph 11.0 mph 66 % 0.00 in 11 W/m2
20:43 60.3 °F 49.3 °F 29.89 in WNW 6.0 mph 10.0 mph 67 % 0.00 in 9 W/m2
20:48 60.1 °F 49.5 °F 29.89 in WNW 6.0 mph 10.0 mph 68 % 0.00 in 7 W/m2
20:53 59.7 °F 49.1 °F 29.89 in WNW 5.0 mph 9.0 mph 68 % 0.00 in 5 W/m2
20:58 59.5 °F 49.4 °F 29.89 in WNW 5.0 mph 9.0 mph 69 % 0.00 in 0 W/m2
21:03 59.4 °F 49.2 °F 29.89 in WNW 5.0 mph 9.0 mph 69 % 0.00 in 0 W/m2
21:08 59.2 °F 49.4 °F 29.89 in WNW 5.0 mph 9.0 mph 70 % 0.00 in 0 W/m2
21:13 58.8 °F 49.1 °F 29.89 in WNW 5.0 mph 9.0 mph 70 % 0.00 in 0 W/m2
21:18 58.6 °F 48.9 °F 29.89 in WNW 4.0 mph 9.0 mph 70 % 0.00 in 0 W/m2
21:23 58.5 °F 49.1 °F 29.89 in West 3.0 mph 8.0 mph 71 % 0.00 in 0 W/m2
21:28 58.1 °F 49.1 °F 29.89 in West 3.0 mph 7.0 mph 72 % 0.00 in 0 W/m2
21:33 57.9 °F 48.9 °F 29.89 in West 3.0 mph 6.0 mph 72 % 0.00 in 0 W/m2
21:38 57.6 °F 49.0 °F 29.90 in WNW 3.0 mph 6.0 mph 73 % 0.00 in 0 W/m2
21:43 57.4 °F 49.2 °F 29.90 in WNW 4.0 mph 7.0 mph 74 % 0.00 in 0 W/m2
21:48 57.0 °F 48.8 °F 29.89 in WNW 3.0 mph 7.0 mph 74 % 0.00 in 0 W/m2
21:53 56.8 °F 49.0 °F 29.90 in WNW 2.0 mph 6.0 mph 75 % 0.00 in 0 W/m2
21:58 56.7 °F 48.8 °F 29.90 in West 2.0 mph 6.0 mph 75 % 0.00 in 0 W/m2
22:04 56.5 °F 48.6 °F 29.90 in West 2.0 mph 6.0 mph 75 % 0.00 in 0 W/m2
22:09 56.5 °F 49.0 °F 29.90 in West 2.0 mph 6.0 mph 76 % 0.00 in 0 W/m2
22:14 56.3 °F 49.2 °F 29.90 in WNW 3.0 mph 8.0 mph 77 % 0.00 in 0 W/m2
22:19 56.1 °F 49.0 °F 29.90 in WNW 3.0 mph 8.0 mph 77 % 0.00 in 0 W/m2
22:24 56.1 °F 49.4 °F 29.90 in WNW 2.0 mph 7.0 mph 78 % 0.00 in 0 W/m2
22:25 55.9 °F 49.2 °F 29.90 in WNW 2.0 mph 6.0 mph 78 % 0.00 in 0 W/m2
22:30 55.9 °F 49.2 °F 29.90 in WNW 2.0 mph 6.0 mph 78 % 0.00 in 0 W/m2
22:33 55.9 °F 49.5 °F 29.90 in WNW 2.0 mph 6.0 mph 79 % 0.00 in 0 W/m2
22:38 55.8 °F 49.3 °F 29.90 in WNW 3.0 mph 6.0 mph 79 % 0.00 in 0 W/m2
22:43 55.8 °F 49.3 °F 29.90 in West 3.0 mph 8.0 mph 79 % 0.00 in 0 W/m2
22:48 55.8 °F 49.7 °F 29.90 in West 2.0 mph 8.0 mph 80 % 0.00 in 0 W/m2
22:53 55.6 °F 49.5 °F 29.90 in West 2.0 mph 5.0 mph 80 % 0.00 in 0 W/m2
22:58 55.6 °F 49.5 °F 29.90 in West 2.0 mph 5.0 mph 80 % 0.00 in 0 W/m2
23:03 55.2 °F 49.5 °F 29.90 in WNW 2.0 mph 7.0 mph 81 % 0.00 in 0 W/m2
23:08 55.2 °F 49.8 °F 29.90 in WNW 3.0 mph 7.0 mph 82 % 0.00 in 0 W/m2
23:13 55.0 °F 49.6 °F 29.90 in WNW 3.0 mph 7.0 mph 82 % 0.00 in 0 W/m2
23:18 54.9 °F 49.5 °F 29.90 in WNW 4.0 mph 10.0 mph 82 % 0.00 in 0 W/m2
23:23 54.9 °F 49.8 °F 29.90 in WNW 5.0 mph 10.0 mph 83 % 0.00 in 0 W/m2
23:28 54.7 °F 49.6 °F 29.90 in WNW 4.0 mph 8.0 mph 83 % 0.00 in 0 W/m2
23:33 54.7 °F 49.6 °F 29.90 in WNW 4.0 mph 7.0 mph 83 % 0.00 in 0 W/m2
23:38 54.5 °F 49.8 °F 29.90 in WNW 3.0 mph 7.0 mph 84 % 0.00 in 0 W/m2
23:43 54.5 °F 49.8 °F 29.90 in WNW 4.0 mph 8.0 mph 84 % 0.00 in 0 W/m2
23:48 54.3 °F 49.9 °F 29.90 in WNW 4.0 mph 8.0 mph 85 % 0.00 in 0 W/m2
23:53 54.3 °F 49.9 °F 29.90 in WNW 4.0 mph 7.0 mph 85 % 0.00 in 0 W/m2
23:58 54.1 °F 49.7 °F 29.90 in WNW 4.0 mph 7.0 mph 85 % 0.00 in 0 W/m2
Delerius-Weather
Compliments of Weather Underground - 2.25 mb

Data updates at regular intervals.